Time;durP1;ratioP1;P1;durP2;ratioP2;P2;SDS_P1;SDS_P2;PMS_P1;PMS_P2;Temp;Humidity;BMP_temperature;BMP_pressure;BME280_temperature;BME280_humidity;BME280_pressure;Samples;Min_cycle;Max_cycle;Signal;HPM_P1;HPM_P2
2023/12/05 15:51:20;;;;;;;124.68;49.35;;;-2.70;99.90;;;;;;5056704;28;20457;-49
2023/12/05 15:53:46;;;;;;;129.57;53.63;;;-2.90;99.90;;;;;;5058338;28;20090;-51
2023/12/05 15:56:13;;;;;;;125.83;53.70;;;-2.90;99.90;;;;;;5060097;28;20071;-49
2023/12/05 15:58:39;;;;;;;125.10;54.95;;;-3.10;99.90;;;;;;5059261;28;20270;-49
2023/12/05 16:01:05;;;;;;;128.30;56.40;;;-3.30;99.90;;;;;;5056439;28;20055;-51
2023/12/05 16:03:30;;;;;;;139.20;60.53;;;-3.40;99.90;;;;;;5059446;28;20025;-50
2023/12/05 16:05:56;;;;;;;127.93;56.10;;;-3.40;99.90;;;;;;5059602;28;20113;-50
2023/12/05 16:08:22;;;;;;;144.60;63.53;;;-3.30;99.90;;;;;;5057905;28;20044;-53
2023/12/05 16:10:49;;;;;;;143.93;64.10;;;-3.50;99.90;;;;;;5055949;28;20045;-51
2023/12/05 16:13:15;;;;;;;132.57;60.55;;;-3.50;99.90;;;;;;5056549;28;20025;-50
2023/12/05 16:15:41;;;;;;;147.18;62.50;;;-3.40;99.90;;;;;;5059314;28;20037;-49
2023/12/05 16:18:06;;;;;;;147.23;62.90;;;-3.70;99.90;;;;;;5059111;28;20037;-51
2023/12/05 16:20:32;;;;;;;141.97;64.00;;;-3.60;99.90;;;;;;5057109;28;20111;-49
2023/12/05 16:22:58;;;;;;;142.90;63.63;;;-3.60;99.90;;;;;;5059239;28;20028;-50
2023/12/05 16:25:24;;;;;;;153.43;65.60;;;-3.70;99.90;;;;;;5057862;28;20068;-52
2023/12/05 16:27:49;;;;;;;148.07;65.53;;;-3.60;99.90;;;;;;5057483;28;20025;-51
2023/12/05 16:30:15;;;;;;;150.30;64.53;;;-3.60;99.90;;;;;;5056746;28;20043;-49
2023/12/05 16:32:41;;;;;;;150.43;67.70;;;-3.60;99.90;;;;;;5055683;28;20092;-50
2023/12/05 16:35:10;;;;;;;162.85;64.68;;;-3.50;99.90;;;;;;5057341;28;20027;-51
2023/12/05 16:37:37;;;;;;;178.18;76.80;;;-3.60;99.90;;;;;;5057431;28;20043;-53
2023/12/05 16:40:04;;;;;;;160.73;70.28;;;-3.60;99.90;;;;;;5055954;28;20128;-51
2023/12/05 16:42:30;;;;;;;176.88;75.55;;;-3.70;99.90;;;;;;5057054;28;20028;-51
2023/12/05 16:44:55;;;;;;;158.23;67.70;;;-3.70;99.90;;;;;;5058703;28;20086;-52
2023/12/05 16:47:21;;;;;;;167.50;69.67;;;-3.50;99.90;;;;;;5058167;28;20566;-50
2023/12/05 16:49:47;;;;;;;158.65;67.75;;;-3.70;99.90;;;;;;5058356;28;20114;-50
2023/12/05 16:52:12;;;;;;;172.30;70.70;;;-3.70;99.90;;;;;;5054659;28;20044;-50
2023/12/05 16:54:38;;;;;;;161.65;65.60;;;-4.10;99.90;;;;;;5057823;28;20024;-51
2023/12/05 16:57:04;;;;;;;145.90;65.28;;;-4.30;99.90;;;;;;5058300;28;20036;-50
2023/12/05 16:59:29;;;;;;;140.95;61.55;;;-4.30;99.90;;;;;;5058568;28;20044;-48
2023/12/05 17:01:56;;;;;;;148.30;63.00;;;-4.20;99.90;;;;;;5046660;28;20033;-50
2023/12/05 17:04:21;;;;;;;152.27;63.63;;;-4.20;99.90;;;;;;5045409;28;20041;-48
2023/12/05 17:06:47;;;;;;;135.05;60.95;;;-4.10;99.90;;;;;;5045037;28;20032;-49
2023/12/05 17:09:18;;;;;;;131.48;59.70;;;-4.20;99.90;;;;;;5044999;28;20029;-52
2023/12/05 17:11:44;;;;;;;139.68;58.28;;;-4.30;99.90;;;;;;5043004;28;20396;-51
2023/12/05 17:14:10;;;;;;;138.18;60.60;;;-4.10;99.90;;;;;;5044679;28;20028;-49
2023/12/05 17:16:35;;;;;;;136.95;61.22;;;-4.10;99.90;;;;;;5044604;28;20029;-50
2023/12/05 17:19:01;;;;;;;134.05;59.95;;;-4.10;99.90;;;;;;5045569;28;20025;-51
2023/12/05 17:21:27;;;;;;;155.18;68.15;;;-4.30;99.90;;;;;;5042558;28;20064;-51
2023/12/05 17:23:54;;;;;;;135.33;58.13;;;-4.20;99.90;;;;;;5043509;28;20120;-51
2023/12/05 17:26:20;;;;;;;162.63;72.93;;;-4.30;99.90;;;;;;5044607;28;20120;-52
2023/12/05 17:28:47;;;;;;;180.63;77.97;;;-4.20;99.90;;;;;;5044733;28;21036;-54
2023/12/05 17:31:13;;;;;;;158.02;68.88;;;-4.10;99.90;;;;;;5042446;28;20033;-51
2023/12/05 17:33:39;;;;;;;156.33;67.00;;;-4.00;99.90;;;;;;5044946;28;20427;-51
2023/12/05 17:36:05;;;;;;;165.88;66.75;;;-4.20;99.90;;;;;;5044067;28;20310;-48
2023/12/05 17:38:31;;;;;;;150.03;65.87;;;-4.30;99.90;;;;;;5044711;28;20086;-53
2023/12/05 17:40:57;;;;;;;170.05;69.57;;;-4.40;99.90;;;;;;5042347;28;20928;-51
2023/12/05 17:43:24;;;;;;;;;;;-4.40;99.90;;;;;;5044560;28;20480;-51
2023/12/05 17:45:50;;;;;;;172.40;74.72;;;-4.50;99.90;;;;;;5044487;28;19909;-51
2023/12/05 17:48:16;;;;;;;195.27;79.80;;;-4.50;99.90;;;;;;5043895;28;20590;-52
2023/12/05 17:50:41;;;;;;;178.43;73.83;;;-4.40;99.90;;;;;;5041533;28;20103;-50
2023/12/05 17:53:08;;;;;;;178.90;75.43;;;-4.50;99.90;;;;;;5044376;28;20040;-50
2023/12/05 17:55:34;;;;;;;162.88;69.50;;;-4.60;99.90;;;;;;5044396;28;20036;-49
2023/12/05 17:58:00;;;;;;;150.13;67.97;;;-4.60;99.90;;;;;;5043731;28;20523;-50
2023/12/05 18:00:25;;;;;;;161.77;67.73;;;-4.70;99.90;;;;;;5042109;28;20036;-50
2023/12/05 18:02:51;;;;;;;142.02;66.03;;;-4.70;99.90;;;;;;5043374;28;20025;-50
2023/12/05 18:05:17;;;;;;;159.87;67.73;;;-4.70;99.90;;;;;;5043839;28;20033;-52
2023/12/05 18:07:43;;;;;;;173.25;72.10;;;-4.60;99.90;;;;;;5042692;28;20039;-51
2023/12/05 18:10:08;;;;;;;166.13;73.27;;;-4.60;99.90;;;;;;5043085;28;20439;-51
2023/12/05 18:12:34;;;;;;;177.67;76.63;;;-4.40;99.90;;;;;;5040989;28;20798;-50
2023/12/05 18:15:00;;;;;;;192.23;80.90;;;-4.40;99.90;;;;;;5043617;28;20044;-48
2023/12/05 18:17:25;;;;;;;192.90;80.40;;;-4.20;99.90;;;;;;5043854;28;20032;-51
2023/12/05 18:19:51;;;;;;;198.57;79.45;;;-4.20;99.90;;;;;;5041968;28;20021;-50
2023/12/05 18:22:19;;;;;;;188.80;81.57;;;-4.20;99.90;;;;;;5039603;28;20114;-51
2023/12/05 18:24:44;;;;;;;193.57;83.85;;;-4.10;99.90;;;;;;5025450;28;20075;-51
2023/12/05 18:27:11;;;;;;;194.63;87.87;;;-4.00;99.90;;;;;;5043742;28;20052;-48
2023/12/05 18:29:39;;;;;;;212.20;92.13;;;-4.00;99.90;;;;;;5043411;28;20040;-50
2023/12/05 18:32:05;;;;;;;213.80;90.30;;;-4.00;99.90;;;;;;5040396;28;21420;-51
2023/12/05 18:34:31;;;;;;;220.25;97.30;;;-4.00;99.90;;;;;;5043759;28;20164;-49
2023/12/05 18:36:56;;;;;;;220.87;99.60;;;-4.00;99.90;;;;;;5043551;28;20509;-49
2023/12/05 18:39:22;;;;;;;251.93;112.47;;;-3.80;99.90;;;;;;5041752;28;20028;-50
2023/12/05 18:41:48;;;;;;;246.30;112.00;;;-3.80;99.90;;;;;;5040484;28;20021;-50
2023/12/05 18:44:14;;;;;;;313.90;141.50;;;-3.70;99.90;;;;;;5043381;28;20013;-50
2023/12/05 18:46:40;;;;;;;307.57;139.87;;;-3.60;99.90;;;;;;5041780;28;20090;-52
2023/12/05 18:49:05;;;;;;;291.37;139.30;;;-3.60;99.90;;;;;;5041682;28;20037;-52
2023/12/05 18:51:32;;;;;;;377.63;164.95;;;-3.50;99.90;;;;;;5041236;28;20033;-50
2023/12/05 18:53:58;;;;;;;346.20;150.52;;;-3.50;99.90;;;;;;5042787;28;20040;-52
2023/12/05 18:56:24;;;;;;;349.50;154.30;;;-3.30;99.90;;;;;;5040728;28;20033;-49
2023/12/05 19:01:25;;;;;;;394.15;178.40;;;-3.10;99.90;;;;;;995391;22;21615;-49
2023/12/05 19:03:51;;;;;;;365.53;164.90;;;-3.20;99.90;;;;;;4964466;28;20136;-51
2023/12/05 19:06:17;;;;;;;350.10;157.13;;;-3.10;99.90;;;;;;4991431;28;20348;-49
2023/12/05 19:08:43;;;;;;;320.08;148.23;;;-3.10;99.90;;;;;;4998690;28;20038;-49
2023/12/05 19:11:09;;;;;;;346.90;152.05;;;-3.10;99.90;;;;;;4991186;28;20488;-47
2023/12/05 19:13:35;;;;;;;351.05;166.65;;;-3.00;99.90;;;;;;4979048;28;20842;-51
2023/12/05 19:16:06;;;;;;;352.90;158.77;;;-3.00;99.90;;;;;;4996688;28;20101;-50
2023/12/05 19:18:31;;;;;;;354.60;162.25;;;-3.00;99.90;;;;;;4996038;28;20036;-51
2023/12/05 19:20:57;;;;;;;370.60;162.20;;;-3.00;99.90;;;;;;4991021;28;20034;-49
2023/12/05 19:23:24;;;;;;;362.60;160.55;;;-3.00;99.90;;;;;;4998903;28;20094;-54
2023/12/05 19:25:50;;;;;;;;;;;-3.00;99.90;;;;;;4998921;28;20034;-50
2023/12/05 19:28:16;;;;;;;410.25;179.30;;;-3.00;99.90;;;;;;4997812;28;19909;-52
2023/12/05 19:30:43;;;;;;;417.53;181.17;;;-3.00;99.90;;;;;;4988750;28;20205;-52
2023/12/05 19:33:09;;;;;;;438.92;191.13;;;-3.20;99.90;;;;;;4998171;28;20033;-52
2023/12/05 19:35:35;;;;;;;459.07;190.73;;;-3.20;99.90;;;;;;4978102;28;20385;-52
2023/12/05 19:38:01;;;;;;;448.33;183.23;;;-3.20;99.90;;;;;;4991208;28;20035;-50
2023/12/05 19:40:27;;;;;;;439.92;183.77;;;-3.20;99.90;;;;;;4988187;28;20037;-52
2023/12/05 19:42:53;;;;;;;450.05;199.15;;;-3.20;99.90;;;;;;4992952;28;20034;-50
2023/12/05 19:45:18;;;;;;;456.52;204.43;;;-3.10;99.90;;;;;;4993051;28;20048;-50
2023/12/05 19:47:44;;;;;;;466.35;206.55;;;-3.10;99.90;;;;;;4954810;28;20600;-50
2023/12/05 19:50:10;;;;;;;471.00;208.55;;;-3.10;99.90;;;;;;4948347;28;20042;-52
2023/12/05 19:52:38;;;;;;;450.10;200.45;;;-3.20;99.90;;;;;;4988459;28;20030;-54
2023/12/05 19:55:06;;;;;;;440.27;198.20;;;-3.10;99.90;;;;;;4986205;28;20061;-55
2023/12/05 19:57:31;;;;;;;428.38;196.43;;;-3.20;99.90;;;;;;4991855;28;21136;-52
2023/12/05 19:59:57;;;;;;;382.17;175.75;;;-3.10;99.90;;;;;;4986842;28;20034;-53
2023/12/05 20:02:23;;;;;;;374.77;166.75;;;-3.20;99.90;;;;;;4951086;28;20065;-47
2023/12/05 20:04:48;;;;;;;364.80;163.20;;;-3.20;99.90;;;;;;4980993;28;20616;-48
2023/12/05 20:07:14;;;;;;;377.05;166.00;;;-3.20;99.90;;;;;;4995933;28;20556;-49
2023/12/05 20:09:40;;;;;;;417.73;178.02;;;-3.20;99.90;;;;;;4974478;28;20046;-51
2023/12/05 20:12:06;;;;;;;449.73;190.63;;;-3.20;99.90;;;;;;4988435;28;20029;-49
2023/12/05 20:14:31;;;;;;;465.45;197.77;;;-3.10;99.90;;;;;;4997667;28;20026;-53
2023/12/05 20:16:57;;;;;;;417.65;170.23;;;-3.10;99.90;;;;;;4991074;28;20052;-51
2023/12/05 20:19:23;;;;;;;371.45;155.98;;;-3.10;99.90;;;;;;4990289;28;20022;-55
2023/12/05 20:21:49;;;;;;;297.77;132.93;;;-3.10;99.90;;;;;;4980418;28;20030;-48
2023/12/05 20:24:15;;;;;;;282.15;126.38;;;-3.00;99.90;;;;;;4985543;28;20045;-51
2023/12/05 20:26:41;;;;;;;255.77;118.43;;;-3.00;99.90;;;;;;4986859;28;20030;-54
2023/12/05 20:29:07;;;;;;;230.40;107.47;;;-3.00;99.90;;;;;;4970448;28;20044;-49
2023/12/05 20:31:33;;;;;;;221.10;102.95;;;-2.90;99.90;;;;;;4980493;28;20152;-55
2023/12/05 20:33:58;;;;;;;245.87;111.47;;;-2.70;99.90;;;;;;4995818;28;20119;-50
2023/12/05 20:36:24;;;;;;;252.57;111.53;;;-2.60;99.90;;;;;;4997840;28;20535;-51
2023/12/05 20:38:51;;;;;;;244.23;106.78;;;-2.60;99.90;;;;;;4999567;28;20034;-54
2023/12/05 20:41:17;;;;;;;219.93;103.05;;;-2.50;99.90;;;;;;4991147;28;20046;-48
2023/12/05 20:43:44;;;;;;;248.15;102.70;;;-2.40;99.90;;;;;;5000221;28;20549;-52
2023/12/05 20:46:14;;;;;;;250.27;110.72;;;-2.40;99.90;;;;;;4982479;28;20485;-56
2023/12/05 20:48:42;;;;;;;238.30;105.07;;;-2.30;99.90;;;;;;5000919;28;20029;-54
2023/12/05 20:51:08;;;;;;;214.93;100.85;;;-2.30;99.90;;;;;;4993683;28;20042;-51
2023/12/05 20:53:33;;;;;;;206.53;100.63;;;-2.30;99.90;;;;;;4999271;28;20046;-50
2023/12/05 20:56:00;;;;;;;213.68;98.70;;;-2.20;99.90;;;;;;4998705;28;20045;-49
2023/12/05 20:58:25;;;;;;;204.65;98.45;;;-2.20;99.90;;;;;;4979214;28;20219;-50
2023/12/05 21:00:51;;;;;;;204.35;103.10;;;-2.20;99.90;;;;;;4991502;28;20431;-51
2023/12/05 21:03:17;;;;;;;222.63;102.53;;;-2.20;99.90;;;;;;4999182;28;20094;-49
2023/12/05 21:05:44;;;;;;;216.57;99.10;;;-2.20;99.90;;;;;;5000858;28;20026;-51
2023/12/05 21:08:11;;;;;;;211.98;102.30;;;-2.10;99.90;;;;;;4999598;28;20538;-51
2023/12/05 21:10:36;;;;;;;213.82;97.82;;;-2.10;99.90;;;;;;4994159;28;20053;-49
2023/12/05 21:13:02;;;;;;;212.73;98.68;;;-2.10;99.90;;;;;;5001701;28;20575;-50
2023/12/05 21:15:29;;;;;;;209.50;98.28;;;-2.10;99.90;;;;;;5000674;28;20487;-58
2023/12/05 21:17:54;;;;;;;215.98;99.38;;;-2.10;99.90;;;;;;4998307;28;20084;-52
2023/12/05 21:20:20;;;;;;;208.35;96.05;;;-2.00;99.90;;;;;;4996904;28;20887;-48
2023/12/05 21:22:46;;;;;;;205.73;98.60;;;-1.90;99.90;;;;;;4990812;28;20923;-50
2023/12/05 21:25:11;;;;;;;191.55;97.43;;;-1.90;99.90;;;;;;4990232;28;20049;-56
2023/12/05 21:27:37;;;;;;;191.35;94.88;;;-1.80;99.90;;;;;;4990240;28;20382;-57
2023/12/05 21:30:04;;;;;;;201.77;99.03;;;-1.80;99.90;;;;;;4991493;28;20655;-52
2023/12/05 21:32:30;;;;;;;198.77;96.82;;;-1.80;99.90;;;;;;4993439;28;20166;-48
2023/12/05 21:34:55;;;;;;;194.93;98.85;;;-1.70;99.90;;;;;;4997929;28;20654;-53
2023/12/05 21:37:22;;;;;;;195.38;98.47;;;-1.70;99.90;;;;;;4982920;28;20148;-49
2023/12/05 21:39:47;;;;;;;210.45;96.97;;;-1.60;99.90;;;;;;5001561;28;20393;-54
2023/12/05 21:42:13;;;;;;;199.18;96.40;;;-1.60;99.90;;;;;;4994932;28;20034;-50
2023/12/05 21:44:40;;;;;;;200.98;98.38;;;-1.50;99.90;;;;;;4998406;28;20026;-55
2023/12/05 21:47:09;;;;;;;212.27;101.30;;;-1.60;99.90;;;;;;5000687;28;20029;-52
2023/12/05 21:49:35;;;;;;;204.25;101.07;;;-1.50;99.90;;;;;;4996913;28;20042;-49
2023/12/05 21:52:05;;;;;;;196.07;100.55;;;-1.60;99.90;;;;;;4995526;28;20040;-52
2023/12/05 21:54:32;;;;;;;195.10;96.18;;;-1.50;99.90;;;;;;5001313;28;20045;-55
2023/12/05 21:56:58;;;;;;;200.38;97.90;;;-1.50;99.90;;;;;;5002834;28;20049;-50
2023/12/05 21:59:24;;;;;;;206.55;98.65;;;-1.50;99.90;;;;;;5000633;28;20026;-47
2023/12/05 22:01:49;;;;;;;205.10;100.78;;;-1.40;99.90;;;;;;4998382;28;20073;-49
2023/12/05 22:04:16;;;;;;;198.13;100.00;;;-1.40;99.90;;;;;;5001625;28;20041;-49
2023/12/05 22:06:41;;;;;;;210.87;101.13;;;-1.40;99.90;;;;;;4998630;28;20084;-56
2023/12/05 22:09:07;;;;;;;211.13;103.00;;;-1.40;99.90;;;;;;5003511;28;20043;-54
2023/12/05 22:11:33;;;;;;;199.00;99.95;;;-1.50;99.90;;;;;;5000429;28;20509;-56
2023/12/05 22:13:59;;;;;;;203.23;101.88;;;-1.40;99.90;;;;;;4987501;28;20117;-52
2023/12/05 22:16:24;;;;;;;212.98;102.85;;;-1.40;99.90;;;;;;5001582;28;20458;-53
2023/12/05 22:18:50;;;;;;;210.98;102.15;;;-1.30;99.90;;;;;;5005048;28;20022;-56
2023/12/05 22:21:19;;;;;;;221.77;104.35;;;-1.30;99.90;;;;;;5007028;28;20037;-52
2023/12/05 22:23:46;;;;;;;213.23;106.35;;;-1.30;99.90;;;;;;5003971;28;20033;-55
2023/12/05 22:26:15;;;;;;;216.83;104.37;;;-1.30;99.90;;;;;;4996517;28;20029;-52
2023/12/05 22:28:41;;;;;;;212.63;105.57;;;-1.30;99.90;;;;;;4999790;28;20772;-50
2023/12/05 22:31:10;;;;;;;215.93;109.95;;;-1.30;99.90;;;;;;4991829;28;20576;-49
2023/12/05 22:33:37;;;;;;;217.25;107.72;;;-1.20;99.90;;;;;;4999676;28;20476;-51
2023/12/05 22:36:03;;;;;;;225.15;109.90;;;-1.30;99.90;;;;;;4999307;28;20084;-49
2023/12/05 22:38:29;;;;;;;234.32;108.82;;;-1.40;99.90;;;;;;4965229;28;20511;-50
2023/12/05 22:40:54;;;;;;;215.60;104.95;;;-1.30;99.90;;;;;;4992460;28;20029;-54
2023/12/05 22:43:20;;;;;;;220.93;107.68;;;-1.40;99.90;;;;;;4981144;28;20029;-53
2023/12/05 22:45:46;;;;;;;224.57;108.10;;;-1.50;99.90;;;;;;4996674;28;20523;-55
2023/12/05 22:48:11;;;;;;;218.38;107.32;;;-1.40;99.90;;;;;;4997755;28;20040;-51
2023/12/05 22:50:38;;;;;;;216.88;106.00;;;-1.30;99.90;;;;;;4993407;28;20073;-50
2023/12/05 22:53:03;;;;;;;225.48;109.55;;;-1.30;99.90;;;;;;4998535;28;20022;-51
2023/12/05 22:55:29;;;;;;;226.43;106.97;;;-1.40;99.90;;;;;;4982291;28;20449;-51
2023/12/05 22:57:55;;;;;;;229.25;110.80;;;-1.40;99.90;;;;;;4999427;28;20564;-58
2023/12/05 23:00:25;;;;;;;216.35;109.32;;;-1.30;99.90;;;;;;4994333;28;20048;-51
